sensor_id;sensor_type;location;lat;lon;timestamp;pressure;altitude;pressure_sealevel;temperature;humidity
20612;BME280;10465;42.686;23.364;2023-02-28T00:01:24;95409.19;;;8.12;98.69
20612;BME280;10465;42.686;23.364;2023-02-28T00:03:50;95435.75;;;8.21;99.15
20612;BME280;10465;42.686;23.364;2023-02-28T00:06:16;95414.63;;;8.26;98.90
20612;BME280;10465;42.686;23.364;2023-02-28T00:08:41;95447.50;;;8.44;97.29
20612;BME280;10465;42.686;23.364;2023-02-28T00:11:09;95448.56;;;8.72;96.66
20612;BME280;10465;42.686;23.364;2023-02-28T00:13:37;95438.13;;;8.85;95.58
20612;BME280;10465;42.686;23.364;2023-02-28T00:16:05;95443.59;;;8.94;95.20
20612;BME280;10465;42.686;23.364;2023-02-28T00:18:31;95428.31;;;8.91;94.58
20612;BME280;10465;42.686;23.364;2023-02-28T00:20:58;95409.47;;;8.74;93.86
20612;BME280;10465;42.686;23.364;2023-02-28T00:23:24;95453.94;;;9.14;93.14
20612;BME280;10465;42.686;23.364;2023-02-28T00:25:50;95454.72;;;9.15;92.78
20612;BME280;10465;42.686;23.364;2023-02-28T00:28:15;95471.88;;;9.18;92.35
20612;BME280;10465;42.686;23.364;2023-02-28T00:30:41;95477.09;;;9.23;92.08
20612;BME280;10465;42.686;23.364;2023-02-28T00:33:06;95453.09;;;9.19;92.61
20612;BME280;10465;42.686;23.364;2023-02-28T00:35:32;95448.16;;;9.12;92.07
20612;BME280;10465;42.686;23.364;2023-02-28T00:37:57;95469.13;;;9.28;92.67
20612;BME280;10465;42.686;23.364;2023-02-28T00:40:22;95458.56;;;9.28;91.03
20612;BME280;10465;42.686;23.364;2023-02-28T00:42:48;95474.19;;;9.24;91.33
20612;BME280;10465;42.686;23.364;2023-02-28T00:45:13;95467.53;;;9.27;91.20
20612;BME280;10465;42.686;23.364;2023-02-28T00:47:39;95434.91;;;9.18;90.30
20612;BME280;10465;42.686;23.364;2023-02-28T00:50:05;95444.56;;;9.27;90.68
20612;BME280;10465;42.686;23.364;2023-02-28T00:52:31;95435.81;;;9.32;90.22
20612;BME280;10465;42.686;23.364;2023-02-28T00:54:56;95438.94;;;9.34;90.32
20612;BME280;10465;42.686;23.364;2023-02-28T00:57:22;95423.31;;;9.13;90.20
20612;BME280;10465;42.686;23.364;2023-02-28T00:59:47;95437.25;;;9.19;90.42
20612;BME280;10465;42.686;23.364;2023-02-28T01:02:13;95441.81;;;9.13;90.14
20612;BME280;10465;42.686;23.364;2023-02-28T01:04:39;95448.50;;;9.06;89.97
20612;BME280;10465;42.686;23.364;2023-02-28T01:07:04;95469.84;;;9.09;90.41
20612;BME280;10465;42.686;23.364;2023-02-28T01:09:30;95437.34;;;8.85;90.15
20612;BME280;10465;42.686;23.364;2023-02-28T01:11:55;95449.63;;;9.00;90.38
20612;BME280;10465;42.686;23.364;2023-02-28T01:14:21;95434.66;;;8.90;90.56
20612;BME280;10465;42.686;23.364;2023-02-28T01:16:46;95430.78;;;9.06;89.84
20612;BME280;10465;42.686;23.364;2023-02-28T01:19:11;95428.66;;;8.84;89.37
20612;BME280;10465;42.686;23.364;2023-02-28T01:21:37;95450.00;;;8.88;89.88
20612;BME280;10465;42.686;23.364;2023-02-28T01:24:04;95444.91;;;8.97;89.46
20612;BME280;10465;42.686;23.364;2023-02-28T01:26:30;95425.63;;;8.96;89.38
20612;BME280;10465;42.686;23.364;2023-02-28T01:28:56;95440.78;;;9.09;89.70
20612;BME280;10465;42.686;23.364;2023-02-28T01:31:22;95433.19;;;9.03;89.45
20612;BME280;10465;42.686;23.364;2023-02-28T01:33:47;95430.13;;;8.96;89.32
20612;BME280;10465;42.686;23.364;2023-02-28T01:36:19;95442.81;;;8.94;90.47
20612;BME280;10465;42.686;23.364;2023-02-28T01:38:46;95428.34;;;8.86;90.80
20612;BME280;10465;42.686;23.364;2023-02-28T01:41:21;95432.47;;;8.97;89.90
20612;BME280;10465;42.686;23.364;2023-02-28T01:46:13;95440.72;;;9.14;88.52
20612;BME280;10465;42.686;23.364;2023-02-28T01:48:45;95442.31;;;9.15;87.99
20612;BME280;10465;42.686;23.364;2023-02-28T01:54:03;95426.19;;;8.93;88.25
20612;BME280;10465;42.686;23.364;2023-02-28T01:56:33;95456.25;;;8.97;88.52
20612;BME280;10465;42.686;23.364;2023-02-28T01:59:00;95432.06;;;8.85;88.66
20612;BME280;10465;42.686;23.364;2023-02-28T02:01:27;95447.06;;;8.89;89.09
20612;BME280;10465;42.686;23.364;2023-02-28T02:03:57;95440.88;;;8.99;89.16
20612;BME280;10465;42.686;23.364;2023-02-28T02:06:34;95443.59;;;8.94;89.25
20612;BME280;10465;42.686;23.364;2023-02-28T02:09:01;95451.00;;;8.92;89.29
20612;BME280;10465;42.686;23.364;2023-02-28T02:11:27;95440.78;;;8.85;89.59
20612;BME280;10465;42.686;23.364;2023-02-28T02:17:22;95435.13;;;8.97;88.19
20612;BME280;10465;42.686;23.364;2023-02-28T02:25:40;95436.41;;;9.00;88.75
20612;BME280;10465;42.686;23.364;2023-02-28T02:28:36;95439.31;;;8.98;88.57
20612;BME280;10465;42.686;23.364;2023-02-28T02:45:01;95450.22;;;8.62;89.42
20612;BME280;10465;42.686;23.364;2023-02-28T02:47:30;95460.22;;;8.65;89.69
20612;BME280;10465;42.686;23.364;2023-02-28T02:49:59;95404.78;;;8.36;90.13
20612;BME280;10465;42.686;23.364;2023-02-28T02:52:34;95442.00;;;8.69;89.46
20612;BME280;10465;42.686;23.364;2023-02-28T02:55:02;95448.56;;;8.72;89.53
20612;BME280;10465;42.686;23.364;2023-02-28T02:57:59;95456.19;;;8.73;89.67
20612;BME280;10465;42.686;23.364;2023-02-28T03:00:31;95454.63;;;8.72;89.90
20612;BME280;10465;42.686;23.364;2023-02-28T03:02:58;95455.72;;;8.66;90.43
20612;BME280;10465;42.686;23.364;2023-02-28T03:05:27;95465.28;;;8.62;90.26
20612;BME280;10465;42.686;23.364;2023-02-28T03:07:54;95477.22;;;8.54;90.72
20612;BME280;10465;42.686;23.364;2023-02-28T03:10:41;95484.69;;;8.42;91.46
20612;BME280;10465;42.686;23.364;2023-02-28T03:16:14;95484.44;;;8.38;92.78
20612;BME280;10465;42.686;23.364;2023-02-28T03:21:38;95493.13;;;8.44;92.34
20612;BME280;10465;42.686;23.364;2023-02-28T03:24:11;95495.47;;;8.51;92.56
20612;BME280;10465;42.686;23.364;2023-02-28T03:26:45;95494.91;;;8.54;92.48
20612;BME280;10465;42.686;23.364;2023-02-28T03:29:28;95501.25;;;8.53;92.16
20612;BME280;10465;42.686;23.364;2023-02-28T03:32:04;95499.69;;;8.47;92.04
20612;BME280;10465;42.686;23.364;2023-02-28T03:34:38;95502.63;;;8.45;91.79
20612;BME280;10465;42.686;23.364;2023-02-28T03:37:08;95513.09;;;8.55;91.53
20612;BME280;10465;42.686;23.364;2023-02-28T03:39:40;95508.31;;;8.57;91.32
20612;BME280;10465;42.686;23.364;2023-02-28T03:42:14;95502.31;;;8.47;91.58
20612;BME280;10465;42.686;23.364;2023-02-28T03:44:51;95512.34;;;8.50;92.30
20612;BME280;10465;42.686;23.364;2023-02-28T03:47:28;95514.16;;;8.54;92.25
20612;BME280;10465;42.686;23.364;2023-02-28T03:50:07;95510.00;;;8.48;92.26
20612;BME280;10465;42.686;23.364;2023-02-28T03:52:39;95492.38;;;8.33;92.56
20612;BME280;10465;42.686;23.364;2023-02-28T03:55:10;95515.56;;;8.41;92.33
20612;BME280;10465;42.686;23.364;2023-02-28T04:00:42;95511.06;;;8.42;92.32
20612;BME280;10465;42.686;23.364;2023-02-28T04:03:10;95504.00;;;8.32;93.09
20612;BME280;10465;42.686;23.364;2023-02-28T04:05:50;95511.59;;;8.44;92.93
20612;BME280;10465;42.686;23.364;2023-02-28T04:08:16;95518.19;;;8.41;93.51
20612;BME280;10465;42.686;23.364;2023-02-28T04:10:45;95507.94;;;8.40;93.47
20612;BME280;10465;42.686;23.364;2023-02-28T04:13:15;95508.44;;;8.42;93.59
20612;BME280;10465;42.686;23.364;2023-02-28T04:15:41;95510.56;;;8.40;93.85
20612;BME280;10465;42.686;23.364;2023-02-28T04:18:06;95477.25;;;8.05;94.35
20612;BME280;10465;42.686;23.364;2023-02-28T04:20:31;95504.88;;;8.23;94.80
20612;BME280;10465;42.686;23.364;2023-02-28T04:22:57;95504.28;;;8.26;95.40
20612;BME280;10465;42.686;23.364;2023-02-28T04:25:22;95508.53;;;8.27;95.67
20612;BME280;10465;42.686;23.364;2023-02-28T04:27:48;95515.38;;;8.28;95.55
20612;BME280;10465;42.686;23.364;2023-02-28T04:30:13;95509.56;;;8.26;95.84
20612;BME280;10465;42.686;23.364;2023-02-28T04:32:39;95513.28;;;8.25;96.21
20612;BME280;10465;42.686;23.364;2023-02-28T04:35:04;95511.63;;;8.34;96.53
20612;BME280;10465;42.686;23.364;2023-02-28T04:37:30;95508.47;;;8.37;95.41
20612;BME280;10465;42.686;23.364;2023-02-28T04:40:00;95499.00;;;8.26;95.40
20612;BME280;10465;42.686;23.364;2023-02-28T04:42:26;95510.03;;;8.38;94.63
20612;BME280;10465;42.686;23.364;2023-02-28T04:44:52;95512.94;;;8.36;93.63
20612;BME280;10465;42.686;23.364;2023-02-28T04:47:17;95529.28;;;8.38;92.90
20612;BME280;10465;42.686;23.364;2023-02-28T04:49:43;95531.16;;;8.33;92.79
20612;BME280;10465;42.686;23.364;2023-02-28T04:52:08;95532.78;;;8.29;93.34
20612;BME280;10465;42.686;23.364;2023-02-28T04:54:35;95546.19;;;8.32;92.85
20612;BME280;10465;42.686;23.364;2023-02-28T04:57:00;95538.09;;;8.24;93.37
20612;BME280;10465;42.686;23.364;2023-02-28T04:59:26;95526.28;;;8.11;93.63
20612;BME280;10465;42.686;23.364;2023-02-28T05:01:52;95534.91;;;8.22;93.57
20612;BME280;10465;42.686;23.364;2023-02-28T05:04:17;95495.47;;;8.06;92.94
20612;BME280;10465;42.686;23.364;2023-02-28T05:06:43;95536.47;;;8.28;92.86
20612;BME280;10465;42.686;23.364;2023-02-28T05:09:08;95532.03;;;8.18;92.81
20612;BME280;10465;42.686;23.364;2023-02-28T05:11:36;95539.94;;;8.23;92.70
20612;BME280;10465;42.686;23.364;2023-02-28T05:14:05;95539.19;;;8.12;93.37
20612;BME280;10465;42.686;23.364;2023-02-28T05:16:31;95539.16;;;8.17;93.77
20612;BME280;10465;42.686;23.364;2023-02-28T05:18:56;95549.78;;;8.07;93.29
20612;BME280;10465;42.686;23.364;2023-02-28T05:21:28;95542.88;;;8.16;93.24
20612;BME280;10465;42.686;23.364;2023-02-28T05:23:55;95553.94;;;8.13;92.68
20612;BME280;10465;42.686;23.364;2023-02-28T05:26:21;95558.44;;;8.13;93.37
20612;BME280;10465;42.686;23.364;2023-02-28T05:28:47;95562.66;;;8.14;93.67
20612;BME280;10465;42.686;23.364;2023-02-28T05:31:13;95557.41;;;8.09;93.48
20612;BME280;10465;42.686;23.364;2023-02-28T05:33:39;95561.91;;;8.08;94.00
20612;BME280;10465;42.686;23.364;2023-02-28T05:36:05;95562.16;;;8.12;93.70
20612;BME280;10465;42.686;23.364;2023-02-28T05:38:31;95567.88;;;8.24;93.33
20612;BME280;10465;42.686;23.364;2023-02-28T05:40:56;95562.66;;;8.14;93.19
20612;BME280;10465;42.686;23.364;2023-02-28T05:43:22;95576.63;;;8.20;93.09
20612;BME280;10465;42.686;23.364;2023-02-28T05:45:47;95571.88;;;8.16;93.30
20612;BME280;10465;42.686;23.364;2023-02-28T05:48:13;95569.22;;;8.16;93.33
20612;BME280;10465;42.686;23.364;2023-02-28T05:50:38;95580.06;;;8.15;93.38
20612;BME280;10465;42.686;23.364;2023-02-28T05:53:04;95575.53;;;8.21;93.54
20612;BME280;10465;42.686;23.364;2023-02-28T05:55:29;95582.88;;;8.29;93.13
20612;BME280;10465;42.686;23.364;2023-02-28T05:57:55;95570.56;;;8.14;92.69
20612;BME280;10465;42.686;23.364;2023-02-28T06:00:21;95589.22;;;8.28;93.06
20612;BME280;10465;42.686;23.364;2023-02-28T06:02:47;95582.13;;;8.23;93.23
20612;BME280;10465;42.686;23.364;2023-02-28T06:05:14;95595.00;;;8.30;93.09
20612;BME280;10465;42.686;23.364;2023-02-28T06:07:40;95579.75;;;8.22;92.91
20612;BME280;10465;42.686;23.364;2023-02-28T06:10:06;95578.41;;;8.29;93.29
20612;BME280;10465;42.686;23.364;2023-02-28T06:12:32;95579.72;;;8.37;92.95
20612;BME280;10465;42.686;23.364;2023-02-28T06:14:57;95584.69;;;8.38;92.98
20612;BME280;10465;42.686;23.364;2023-02-28T06:17:22;95591.81;;;8.38;92.74
20612;BME280;10465;42.686;23.364;2023-02-28T06:19:48;95580.75;;;8.36;92.58
20612;BME280;10465;42.686;23.364;2023-02-28T06:22:13;95575.72;;;8.45;93.10
20612;BME280;10465;42.686;23.364;2023-02-28T06:24:39;95575.16;;;8.48;92.88
20612;BME280;10465;42.686;23.364;2023-02-28T06:27:04;95580.38;;;8.58;92.52
20612;BME280;10465;42.686;23.364;2023-02-28T06:29:32;95581.63;;;8.65;91.95
20612;BME280;10465;42.686;23.364;2023-02-28T06:31:57;95591.66;;;8.69;91.64
20612;BME280;10465;42.686;23.364;2023-02-28T06:34:23;95586.44;;;8.58;91.39
20612;BME280;10465;42.686;23.364;2023-02-28T06:36:50;95591.69;;;8.58;91.82
20612;BME280;10465;42.686;23.364;2023-02-28T06:39:15;95601.97;;;8.65;90.79
20612;BME280;10465;42.686;23.364;2023-02-28T06:41:41;95574.88;;;8.49;91.15
20612;BME280;10465;42.686;23.364;2023-02-28T06:44:17;95602.84;;;8.55;91.03
20612;BME280;10465;42.686;23.364;2023-02-28T06:46:44;95596.44;;;8.61;91.74
20612;BME280;10465;42.686;23.364;2023-02-28T06:49:11;95603.06;;;8.59;91.85
20612;BME280;10465;42.686;23.364;2023-02-28T06:51:41;95600.91;;;8.66;92.12
20612;BME280;10465;42.686;23.364;2023-02-28T06:54:09;95600.06;;;8.71;90.85
20612;BME280;10465;42.686;23.364;2023-02-28T06:56:35;95589.88;;;8.59;90.39
20612;BME280;10465;42.686;23.364;2023-02-28T06:59:00;95590.69;;;8.54;90.38
20612;BME280;10465;42.686;23.364;2023-02-28T07:01:26;95592.53;;;8.54;90.67
20612;BME280;10465;42.686;23.364;2023-02-28T07:03:53;95610.72;;;8.60;90.74
20612;BME280;10465;42.686;23.364;2023-02-28T07:06:20;95607.53;;;8.63;91.04
20612;BME280;10465;42.686;23.364;2023-02-28T07:08:48;95585.09;;;8.61;90.76
20612;BME280;10465;42.686;23.364;2023-02-28T07:11:13;95599.28;;;8.70;90.25
20612;BME280;10465;42.686;23.364;2023-02-28T07:13:39;95578.75;;;8.67;90.16
20612;BME280;10465;42.686;23.364;2023-02-28T07:16:07;95608.38;;;8.93;91.13
20612;BME280;10465;42.686;23.364;2023-02-28T07:18:34;95597.53;;;8.95;91.01
20612;BME280;10465;42.686;23.364;2023-02-28T07:21:02;95586.13;;;8.99;90.30
20612;BME280;10465;42.686;23.364;2023-02-28T07:23:28;95552.94;;;8.93;89.95
20612;BME280;10465;42.686;23.364;2023-02-28T07:25:54;95586.78;;;9.15;89.75
20612;BME280;10465;42.686;23.364;2023-02-28T07:28:19;95596.50;;;9.25;89.43
20612;BME280;10465;42.686;23.364;2023-02-28T07:30:44;95595.66;;;9.29;87.95
20612;BME280;10465;42.686;23.364;2023-02-28T07:33:10;95594.34;;;9.27;87.81
20612;BME280;10465;42.686;23.364;2023-02-28T07:35:35;95601.50;;;9.26;88.25
20612;BME280;10465;42.686;23.364;2023-02-28T07:38:01;95599.38;;;9.28;87.88
20612;BME280;10465;42.686;23.364;2023-02-28T07:40:28;95599.94;;;9.25;88.18
20612;BME280;10465;42.686;23.364;2023-02-28T07:42:53;95604.66;;;9.28;89.37
20612;BME280;10465;42.686;23.364;2023-02-28T07:45:19;95590.97;;;9.21;89.36
20612;BME280;10465;42.686;23.364;2023-02-28T07:47:44;95605.09;;;9.35;89.51
20612;BME280;10465;42.686;23.364;2023-02-28T07:50:12;95605.38;;;9.34;89.17
20612;BME280;10465;42.686;23.364;2023-02-28T07:52:38;95590.44;;;9.24;89.77
20612;BME280;10465;42.686;23.364;2023-02-28T07:55:05;95578.59;;;9.16;90.03
20612;BME280;10465;42.686;23.364;2023-02-28T07:57:31;95584.91;;;9.21;90.73
20612;BME280;10465;42.686;23.364;2023-02-28T07:59:57;95592.84;;;9.21;90.62
20612;BME280;10465;42.686;23.364;2023-02-28T08:02:22;95593.31;;;9.28;90.74
20612;BME280;10465;42.686;23.364;2023-02-28T08:04:47;95581.66;;;9.29;90.69
20612;BME280;10465;42.686;23.364;2023-02-28T08:07:15;95602.06;;;9.52;90.37
20612;BME280;10465;42.686;23.364;2023-02-28T08:09:41;95569.47;;;9.33;90.20
20612;BME280;10465;42.686;23.364;2023-02-28T08:12:07;95600.88;;;9.63;89.68
20612;BME280;10465;42.686;23.364;2023-02-28T08:14:33;95605.16;;;9.83;88.59
20612;BME280;10465;42.686;23.364;2023-02-28T08:16:59;95605.69;;;9.85;89.21
20612;BME280;10465;42.686;23.364;2023-02-28T08:19:24;95589.81;;;9.85;89.66
20612;BME280;10465;42.686;23.364;2023-02-28T08:21:50;95593.50;;;10.08;88.88
20612;BME280;10465;42.686;23.364;2023-02-28T08:24:15;95589.78;;;10.09;89.37
20612;BME280;10465;42.686;23.364;2023-02-28T08:26:41;95593.47;;;10.32;90.18
20612;BME280;10465;42.686;23.364;2023-02-28T08:29:06;95591.50;;;10.43;90.25
20612;BME280;10465;42.686;23.364;2023-02-28T08:31:32;95585.50;;;10.37;90.20
20612;BME280;10465;42.686;23.364;2023-02-28T08:33:57;95593.72;;;10.55;90.27
20612;BME280;10465;42.686;23.364;2023-02-28T08:36:25;95598.50;;;10.72;90.59
20612;BME280;10465;42.686;23.364;2023-02-28T08:38:51;95591.44;;;10.67;90.98
20612;BME280;10465;42.686;23.364;2023-02-28T08:41:17;95597.78;;;10.85;91.65
20612;BME280;10465;42.686;23.364;2023-02-28T08:43:42;95600.28;;;10.95;91.24
20612;BME280;10465;42.686;23.364;2023-02-28T08:46:11;95607.00;;;11.06;91.43
20612;BME280;10465;42.686;23.364;2023-02-28T08:48:37;95599.31;;;11.24;91.36
20612;BME280;10465;42.686;23.364;2023-02-28T08:51:14;95599.06;;;11.39;91.44
20612;BME280;10465;42.686;23.364;2023-02-28T08:53:46;95589.81;;;11.50;90.70
20612;BME280;10465;42.686;23.364;2023-02-28T08:56:15;95602.41;;;11.58;90.13
20612;BME280;10465;42.686;23.364;2023-02-28T08:58:42;95601.75;;;11.80;90.13
20612;BME280;10465;42.686;23.364;2023-02-28T09:01:13;95603.16;;;12.05;88.69
20612;BME280;10465;42.686;23.364;2023-02-28T09:03:40;95588.78;;;12.06;87.58
20612;BME280;10465;42.686;23.364;2023-02-28T09:06:09;95607.47;;;12.01;86.81
20612;BME280;10465;42.686;23.364;2023-02-28T09:08:36;95611.41;;;12.04;86.79
20612;BME280;10465;42.686;23.364;2023-02-28T09:11:02;95603.44;;;12.18;85.07
20612;BME280;10465;42.686;23.364;2023-02-28T09:13:28;95581.97;;;12.42;83.64
20612;BME280;10465;42.686;23.364;2023-02-28T09:15:58;95585.28;;;12.61;82.53
20612;BME280;10465;42.686;23.364;2023-02-28T09:18:24;95601.72;;;12.85;82.60
20612;BME280;10465;42.686;23.364;2023-02-28T09:20:49;95595.19;;;12.92;80.44
20612;BME280;10465;42.686;23.364;2023-02-28T09:23:34;95596.69;;;12.84;80.15
20612;BME280;10465;42.686;23.364;2023-02-28T09:26:00;95592.50;;;13.05;80.43
20612;BME280;10465;42.686;23.364;2023-02-28T09:28:25;95583.59;;;12.87;79.39
20612;BME280;10465;42.686;23.364;2023-02-28T09:30:53;95592.53;;;12.92;79.92
20612;BME280;10465;42.686;23.364;2023-02-28T09:33:20;95578.34;;;12.74;79.29
20612;BME280;10465;42.686;23.364;2023-02-28T09:35:50;95590.47;;;12.66;78.95
20612;BME280;10465;42.686;23.364;2023-02-28T09:38:17;95592.19;;;12.84;79.15
20612;BME280;10465;42.686;23.364;2023-02-28T09:40:49;95598.34;;;12.94;79.11
20612;BME280;10465;42.686;23.364;2023-02-28T09:43:16;95579.56;;;12.90;79.10
20612;BME280;10465;42.686;23.364;2023-02-28T09:45:49;95591.03;;;13.22;78.74
20612;BME280;10465;42.686;23.364;2023-02-28T09:48:20;95584.94;;;13.44;77.63
20612;BME280;10465;42.686;23.364;2023-02-28T09:50:50;95598.81;;;13.63;75.50
20612;BME280;10465;42.686;23.364;2023-02-28T09:53:20;95596.03;;;13.77;75.17
20612;BME280;10465;42.686;23.364;2023-02-28T09:55:50;95595.41;;;13.71;74.67
20612;BME280;10465;42.686;23.364;2023-02-28T09:58:23;95583.63;;;13.64;74.44
20612;BME280;10465;42.686;23.364;2023-02-28T10:06:50;95581.44;;;13.34;74.85
20612;BME280;10465;42.686;23.364;2023-02-28T10:09:24;95575.09;;;13.22;76.13
20612;BME280;10465;42.686;23.364;2023-02-28T10:11:53;95577.13;;;13.47;75.85
20612;BME280;10465;42.686;23.364;2023-02-28T10:14:32;95579.13;;;13.73;72.85
20612;BME280;10465;42.686;23.364;2023-02-28T10:17:04;95577.78;;;13.93;72.57
20612;BME280;10465;42.686;23.364;2023-02-28T10:19:42;95577.00;;;13.92;71.97
20612;BME280;10465;42.686;23.364;2023-02-28T10:22:12;95576.78;;;14.20;71.69
20612;BME280;10465;42.686;23.364;2023-02-28T10:24:47;95579.63;;;14.41;70.12
20612;BME280;10465;42.686;23.364;2023-02-28T10:27:24;95572.25;;;14.38;69.09
20612;BME280;10465;42.686;23.364;2023-02-28T10:29:52;95560.09;;;14.71;68.04
20612;BME280;10465;42.686;23.364;2023-02-28T10:32:27;95559.47;;;14.83;67.12
20612;BME280;10465;42.686;23.364;2023-02-28T10:35:17;95566.22;;;14.89;66.56
20612;BME280;10465;42.686;23.364;2023-02-28T10:37:49;95559.91;;;15.20;65.39
20612;BME280;10465;42.686;23.364;2023-02-28T10:43:01;95557.28;;;15.58;62.44
20612;BME280;10465;42.686;23.364;2023-02-28T10:45:29;95541.94;;;15.46;64.03
20612;BME280;10465;42.686;23.364;2023-02-28T10:53:22;95540.28;;;15.24;63.35
20612;BME280;10465;42.686;23.364;2023-02-28T10:56:06;95538.09;;;15.18;64.02
20612;BME280;10465;42.686;23.364;2023-02-28T11:01:43;95525.50;;;15.36;64.86
20612;BME280;10465;42.686;23.364;2023-02-28T11:04:19;95516.81;;;15.47;64.74
20612;BME280;10465;42.686;23.364;2023-02-28T11:06:45;95517.81;;;15.34;64.86
20612;BME280;10465;42.686;23.364;2023-02-28T11:09:23;95517.19;;;15.37;63.63
20612;BME280;10465;42.686;23.364;2023-02-28T11:11:50;95506.97;;;15.39;62.39
20612;BME280;10465;42.686;23.364;2023-02-28T11:14:30;95515.84;;;15.61;61.84
20612;BME280;10465;42.686;23.364;2023-02-28T11:17:02;95518.06;;;15.50;62.07
20612;BME280;10465;42.686;23.364;2023-02-28T11:19:40;95504.41;;;15.51;61.31
20612;BME280;10465;42.686;23.364;2023-02-28T11:22:09;95512.28;;;15.48;61.75
20612;BME280;10465;42.686;23.364;2023-02-28T11:24:44;95493.75;;;15.04;62.90
20612;BME280;10465;42.686;23.364;2023-02-28T11:29:56;95501.31;;;14.76;64.16
20612;BME280;10465;42.686;23.364;2023-02-28T11:32:27;95501.91;;;14.91;65.10
20612;BME280;10465;42.686;23.364;2023-02-28T11:35:24;95507.25;;;14.82;64.53
20612;BME280;10465;42.686;23.364;2023-02-28T11:37:51;95496.44;;;14.78;64.64
20612;BME280;10465;42.686;23.364;2023-02-28T11:40:30;95496.59;;;14.73;65.13
20612;BME280;10465;42.686;23.364;2023-02-28T11:42:59;95498.00;;;14.45;66.91
20612;BME280;10465;42.686;23.364;2023-02-28T11:50:47;95488.63;;;14.47;66.79
20612;BME280;10465;42.686;23.364;2023-02-28T11:56:07;95491.41;;;14.94;64.05
20612;BME280;10465;42.686;23.364;2023-02-28T11:58:39;95489.97;;;15.05;64.69
20612;BME280;10465;42.686;23.364;2023-02-28T12:06:40;95494.34;;;15.10;63.29
20612;BME280;10465;42.686;23.364;2023-02-28T12:11:57;95473.25;;;14.79;64.49
20612;BME280;10465;42.686;23.364;2023-02-28T12:14:53;95447.09;;;14.64;64.18
20612;BME280;10465;42.686;23.364;2023-02-28T12:20:41;95477.81;;;14.52;65.03
20612;BME280;10465;42.686;23.364;2023-02-28T12:28:47;95463.56;;;14.57;65.77
20612;BME280;10465;42.686;23.364;2023-02-28T12:31:20;95485.00;;;14.69;64.83
20612;BME280;10465;42.686;23.364;2023-02-28T12:33:59;95474.19;;;14.40;66.19
20612;BME280;10465;42.686;23.364;2023-02-28T12:36:25;95480.03;;;14.59;65.53
20612;BME280;10465;42.686;23.364;2023-02-28T12:38:59;95485.19;;;14.55;65.24
20612;BME280;10465;42.686;23.364;2023-02-28T12:44:11;95450.53;;;14.21;65.10
20612;BME280;10465;42.686;23.364;2023-02-28T12:46:42;95469.97;;;14.47;66.24
20612;BME280;10465;42.686;23.364;2023-02-28T12:49:13;95466.22;;;14.31;64.57
20612;BME280;10465;42.686;23.364;2023-02-28T12:51:41;95459.91;;;13.92;65.65
20612;BME280;10465;42.686;23.364;2023-02-28T12:54:19;95471.81;;;13.86;66.33
20612;BME280;10465;42.686;23.364;2023-02-28T12:56:56;95455.97;;;13.81;66.89
20612;BME280;10465;42.686;23.364;2023-02-28T12:59:56;95465.34;;;13.70;66.72
20612;BME280;10465;42.686;23.364;2023-02-28T13:10:57;95416.34;;;13.22;68.45
20612;BME280;10465;42.686;23.364;2023-02-28T13:13:25;95472.78;;;13.42;66.93
20612;BME280;10465;42.686;23.364;2023-02-28T13:16:02;95442.38;;;12.72;70.03
20612;BME280;10465;42.686;23.364;2023-02-28T13:18:39;95462.44;;;13.09;69.38
20612;BME280;10465;42.686;23.364;2023-02-28T13:21:28;95464.97;;;13.45;67.88
20612;BME280;10465;42.686;23.364;2023-02-28T13:34:42;95459.56;;;13.28;69.63
20612;BME280;10465;42.686;23.364;2023-02-28T13:39:54;95458.97;;;12.77;71.32
20612;BME280;10465;42.686;23.364;2023-02-28T13:47:40;95447.75;;;13.11;70.73
20612;BME280;10465;42.686;23.364;2023-02-28T13:55:43;95436.03;;;12.59;73.14
20612;BME280;10465;42.686;23.364;2023-02-28T13:58:38;95444.19;;;12.85;72.63
20612;BME280;10465;42.686;23.364;2023-02-28T14:06:48;95397.72;;;12.06;72.97
20612;BME280;10465;42.686;23.364;2023-02-28T14:09:59;95447.09;;;12.07;74.12
20612;BME280;10465;42.686;23.364;2023-02-28T14:15:39;95457.25;;;12.28;73.56
20612;BME280;10465;42.686;23.364;2023-02-28T14:18:19;95438.66;;;11.78;75.91
20612;BME280;10465;42.686;23.364;2023-02-28T14:20:47;95449.22;;;11.42;77.55
20612;BME280;10465;42.686;23.364;2023-02-28T14:31:37;95462.06;;;11.21;80.82
20612;BME280;10465;42.686;23.364;2023-02-28T14:37:15;95447.03;;;10.88;82.42
20612;BME280;10465;42.686;23.364;2023-02-28T14:39:43;95455.75;;;10.89;82.45
20612;BME280;10465;42.686;23.364;2023-02-28T14:44:55;95439.31;;;11.20;81.31
20612;BME280;10465;42.686;23.364;2023-02-28T14:47:27;95459.22;;;11.03;82.51
20612;BME280;10465;42.686;23.364;2023-02-28T14:49:53;95453.19;;;10.84;83.25
20612;BME280;10465;42.686;23.364;2023-02-28T14:52:22;95454.97;;;10.88;83.28
20612;BME280;10465;42.686;23.364;2023-02-28T14:55:01;95415.03;;;10.71;83.15
20612;BME280;10465;42.686;23.364;2023-02-28T14:57:39;95460.56;;;11.01;82.89
20612;BME280;10465;42.686;23.364;2023-02-28T15:00:13;95466.88;;;11.19;82.21
20612;BME280;10465;42.686;23.364;2023-02-28T15:02:40;95464.34;;;11.27;82.03
20612;BME280;10465;42.686;23.364;2023-02-28T15:07:35;95446.56;;;11.28;82.46
20612;BME280;10465;42.686;23.364;2023-02-28T15:10:20;95455.50;;;11.59;81.20
20612;BME280;10465;42.686;23.364;2023-02-28T15:12:52;95431.91;;;11.58;79.96
20612;BME280;10465;42.686;23.364;2023-02-28T15:15:19;95450.66;;;11.89;79.12
20612;BME280;10465;42.686;23.364;2023-02-28T15:17:49;95431.47;;;11.78;78.37
20612;BME280;10465;42.686;23.364;2023-02-28T15:20:17;95429.56;;;11.84;78.48
20612;BME280;10465;42.686;23.364;2023-02-28T15:22:44;95432.59;;;11.91;78.63
20612;BME280;10465;42.686;23.364;2023-02-28T15:25:15;95452.81;;;12.01;78.59
20612;BME280;10465;42.686;23.364;2023-02-28T15:27:47;95451.44;;;11.90;78.93
20612;BME280;10465;42.686;23.364;2023-02-28T15:30:32;95458.81;;;11.79;79.95